createdAt,value
2024-05-09T00:00:46.238Z,9.10
2024-05-09T00:03:33.546Z,11.00
2024-05-09T00:06:01.134Z,9.60
2024-05-09T00:08:28.742Z,9.30
2024-05-09T00:10:56.178Z,10.10
2024-05-09T00:13:23.613Z,10.80
2024-05-09T00:15:50.833Z,9.30
2024-05-09T00:18:18.213Z,7.60
2024-05-09T00:20:45.528Z,6.80
2024-05-09T00:23:13.573Z,8.50
2024-05-09T00:25:44.943Z,7.20
2024-05-09T00:28:13.532Z,8.30
2024-05-09T00:30:41.368Z,9.10
2024-05-09T00:33:10.547Z,7.30
2024-05-09T00:35:39.611Z,8.40
2024-05-09T00:38:07.466Z,7.80
2024-05-09T00:40:39.977Z,7.80
2024-05-09T00:43:11.255Z,11.10
2024-05-09T00:45:38.992Z,7.20
2024-05-09T00:48:09.018Z,8.00
2024-05-09T00:50:41.193Z,9.70
2024-05-09T00:53:13.752Z,9.70
2024-05-09T00:55:41.579Z,8.00
2024-05-09T00:58:12.059Z,9.20
2024-05-09T01:00:41.347Z,8.10
2024-05-09T01:03:11.833Z,7.80
2024-05-09T01:05:42.645Z,8.00
2024-05-09T01:08:11.137Z,8.90
2024-05-09T01:10:38.601Z,6.90
2024-05-09T01:13:07.272Z,7.80
2024-05-09T01:15:35.379Z,8.80
2024-05-09T01:18:09.016Z,7.40
2024-05-09T01:20:41.849Z,8.90
2024-05-09T01:23:13.362Z,7.10
2024-05-09T01:25:43.004Z,6.40
2024-05-09T01:28:10.614Z,6.80
2024-05-09T01:30:38.618Z,8.80
2024-05-09T01:33:09.760Z,10.10
2024-05-09T01:35:40.243Z,11.70
2024-05-09T01:38:07.728Z,7.10
2024-05-09T01:40:38.730Z,7.50
2024-05-09T01:43:09.381Z,7.10
2024-05-09T01:45:38.571Z,6.50
2024-05-09T01:48:06.832Z,7.80
2024-05-09T01:50:39.550Z,6.80
2024-05-09T01:53:11.612Z,6.50
2024-05-09T01:55:39.202Z,8.90
2024-05-09T01:58:06.853Z,7.20
2024-05-09T02:00:39.496Z,9.20
2024-05-09T02:03:13.529Z,7.40
2024-05-09T02:05:44.725Z,7.10
2024-05-09T02:08:20.481Z,6.80
2024-05-09T02:10:49.660Z,7.80
2024-05-09T02:13:17.606Z,7.60
2024-05-09T02:15:44.947Z,10.00
2024-05-09T02:18:13.018Z,9.00
2024-05-09T02:20:41.881Z,9.10
2024-05-09T02:23:10.278Z,6.80
2024-05-09T02:25:37.708Z,7.90
2024-05-09T02:28:05.318Z,13.00
2024-05-09T02:30:40.065Z,9.40
2024-05-09T02:33:12.948Z,8.60
2024-05-09T02:35:43.654Z,7.10
2024-05-09T02:38:12.308Z,9.10
2024-05-09T02:40:40.583Z,7.60
2024-05-09T02:43:12.289Z,8.00
2024-05-09T02:45:40.572Z,8.30
2024-05-09T02:48:13.286Z,9.20
2024-05-09T02:50:43.546Z,7.90
2024-05-09T02:53:11.261Z,6.90
2024-05-09T02:55:38.688Z,8.30
2024-05-09T02:58:09.985Z,7.70
2024-05-09T03:00:41.082Z,8.30
2024-05-09T03:03:13.203Z,8.50
2024-05-09T03:05:44.052Z,7.30
2024-05-09T03:08:11.619Z,11.70
2024-05-09T03:10:39.727Z,7.90
2024-05-09T03:13:08.532Z,8.10
2024-05-09T03:15:36.058Z,8.40
2024-05-09T03:18:05.186Z,15.70
2024-05-09T03:20:35.040Z,9.30
2024-05-09T03:23:04.880Z,10.50
2024-05-09T03:25:33.040Z,7.40
2024-05-09T03:28:00.364Z,7.40
2024-05-09T03:30:36.747Z,8.30
2024-05-09T03:33:20.389Z,10.40
2024-05-09T03:35:49.061Z,7.50
2024-05-09T03:38:17.215Z,7.20
2024-05-09T03:40:46.680Z,7.50
2024-05-09T03:43:14.567Z,7.40
2024-05-09T03:45:42.933Z,7.20
2024-05-09T03:48:10.573Z,7.60
2024-05-09T03:50:38.467Z,7.80
2024-05-09T03:53:09.466Z,7.50
2024-05-09T03:55:36.798Z,7.60
2024-05-09T03:58:04.361Z,11.40
2024-05-09T04:00:37.647Z,9.30
2024-05-09T04:03:10.306Z,7.90
2024-05-09T04:05:42.239Z,6.80
2024-05-09T04:08:11.192Z,8.00
2024-05-09T04:10:39.049Z,9.70
2024-05-09T04:13:06.524Z,8.10
2024-05-09T04:15:33.776Z,9.30
2024-05-09T04:18:01.898Z,11.10
2024-05-09T04:20:37.656Z,7.70
2024-05-09T04:23:13.525Z,13.70
2024-05-09T04:25:43.438Z,14.00
2024-05-09T04:28:10.786Z,8.50
2024-05-09T04:30:40.813Z,10.80
2024-05-09T04:33:14.037Z,10.60
2024-05-09T04:35:44.061Z,31.40
2024-05-09T04:38:14.102Z,13.30
2024-05-09T04:40:42.031Z,12.80
2024-05-09T04:43:19.283Z,14.80
2024-05-09T04:45:46.933Z,9.40
2024-05-09T04:48:14.692Z,9.70
2024-05-09T04:50:42.303Z,11.90
2024-05-09T04:53:11.083Z,13.50
2024-05-09T04:55:40.151Z,12.60
2024-05-09T04:58:09.192Z,8.60
2024-05-09T05:00:38.909Z,9.00
2024-05-09T05:03:10.817Z,9.80
2024-05-09T05:05:41.587Z,6.70
2024-05-09T05:08:13.694Z,18.40
2024-05-09T05:10:42.459Z,10.60
2024-05-09T05:13:20.066Z,10.50
2024-05-09T05:15:49.822Z,11.50
2024-05-09T05:18:17.554Z,7.50
2024-05-09T05:20:45.342Z,8.40
2024-05-09T05:23:14.671Z,13.10
2024-05-09T05:25:42.455Z,6.00
2024-05-09T05:28:10.721Z,7.40
2024-05-09T05:30:38.709Z,8.20
2024-05-09T05:33:09.789Z,10.50
2024-05-09T05:35:37.584Z,11.60
2024-05-09T05:38:07.528Z,6.30
2024-05-09T05:40:38.209Z,10.10
2024-05-09T05:43:10.611Z,6.20
2024-05-09T05:45:39.021Z,6.40
2024-05-09T05:48:07.592Z,8.30
2024-05-09T05:50:38.186Z,7.20
2024-05-09T05:53:08.026Z,12.70
2024-05-09T05:55:37.079Z,9.80
2024-05-09T05:58:04.949Z,9.60
2024-05-09T06:03:02.559Z,10.70
2024-05-09T06:05:30.212Z,8.50
2024-05-09T06:07:57.503Z,10.80
2024-05-09T06:10:30.101Z,6.20
2024-05-09T06:13:04.754Z,6.10
2024-05-09T06:15:31.972Z,7.10
2024-05-09T06:17:59.466Z,8.30
2024-05-09T06:20:34.394Z,10.00
2024-05-09T06:23:09.023Z,18.30
2024-05-09T06:25:37.299Z,7.80
2024-05-09T06:28:05.465Z,6.20
2024-05-09T06:30:38.709Z,5.50
2024-05-09T06:33:12.506Z,7.80
2024-05-09T06:35:42.311Z,9.60
2024-05-09T06:38:12.719Z,7.40
2024-05-09T06:40:42.350Z,7.40
2024-05-09T06:43:16.748Z,10.60
2024-05-09T06:45:49.965Z,7.90
2024-05-09T06:48:19.444Z,10.10
2024-05-09T06:50:47.598Z,8.60
2024-05-09T06:53:15.891Z,10.20
2024-05-09T06:55:43.249Z,7.20
2024-05-09T06:58:10.591Z,8.80
2024-05-09T07:00:40.615Z,7.60
2024-05-09T07:03:11.614Z,5.50
2024-05-09T07:05:40.261Z,7.40
2024-05-09T07:08:08.040Z,8.40
2024-05-09T07:10:36.663Z,7.40
2024-05-09T07:13:09.553Z,8.70
2024-05-09T07:15:36.897Z,7.40
2024-05-09T07:18:18.377Z,7.70
2024-05-09T07:20:50.746Z,8.60
2024-05-09T07:23:19.073Z,7.60
2024-05-09T07:25:46.694Z,7.40
2024-05-09T07:28:16.012Z,9.00
2024-05-09T07:30:44.473Z,8.80
2024-05-09T07:33:20.309Z,8.40
2024-05-09T07:35:49.366Z,8.30
2024-05-09T07:38:17.313Z,8.80
2024-05-09T07:40:44.676Z,8.20
2024-05-09T07:43:12.705Z,7.60
2024-05-09T07:45:49.391Z,6.60
2024-05-09T07:52:37.671Z,5.90
2024-05-09T07:53:46.151Z,6.90
2024-05-09T07:56:17.742Z,6.20
2024-05-09T07:58:45.711Z,7.60
2024-05-09T08:01:13.146Z,6.70
2024-05-09T08:03:40.757Z,6.10
2024-05-09T08:06:08.238Z,6.40
2024-05-09T08:08:35.462Z,6.70
2024-05-09T08:11:02.983Z,6.30
2024-05-09T08:13:30.400Z,6.00
2024-05-09T08:15:57.655Z,10.20
2024-05-09T08:18:25.006Z,7.60
2024-05-09T08:20:52.420Z,10.50
2024-05-09T08:23:19.765Z,5.60
2024-05-09T08:25:47.782Z,6.30
2024-05-09T08:28:15.155Z,5.40
2024-05-09T08:30:42.594Z,7.50
2024-05-09T08:33:10.088Z,6.50
2024-05-09T08:35:37.479Z,6.20
2024-05-09T08:38:06.327Z,13.10
2024-05-09T08:40:37.266Z,6.10
2024-05-09T08:43:08.614Z,8.30
2024-05-09T08:45:38.106Z,8.00
2024-05-09T08:48:08.029Z,7.90
2024-05-09T08:50:40.247Z,7.40
2024-05-09T08:53:08.660Z,8.10
2024-05-09T08:55:40.448Z,6.30
2024-05-09T08:58:16.245Z,6.30
2024-05-09T09:00:45.641Z,8.70
2024-05-09T09:03:18.910Z,6.70
2024-05-09T09:05:57.003Z,6.70
2024-05-09T09:08:25.543Z,13.40
2024-05-09T09:10:57.336Z,9.10
2024-05-09T09:13:27.562Z,8.40
2024-05-09T09:15:58.160Z,7.70
2024-05-09T09:18:27.406Z,5.50
2024-05-09T09:20:55.410Z,8.80
2024-05-09T09:23:22.726Z,9.30
2024-05-09T09:25:50.215Z,5.90
2024-05-09T09:28:17.744Z,8.20
2024-05-09T09:30:45.270Z,6.90
2024-05-09T09:33:12.856Z,6.90
2024-05-09T09:35:41.000Z,13.80
2024-05-09T09:38:09.622Z,9.20
2024-05-09T09:40:46.610Z,7.80
2024-05-09T09:43:23.262Z,6.30
2024-05-09T09:45:53.322Z,7.80
2024-05-09T09:48:22.750Z,10.60
2024-05-09T09:50:55.018Z,7.60
2024-05-09T09:53:25.404Z,6.90
2024-05-09T09:55:53.157Z,5.90
2024-05-09T09:58:21.297Z,7.30
2024-05-09T10:00:48.811Z,6.10
2024-05-09T10:03:16.317Z,5.50
2024-05-09T10:05:46.437Z,6.40
2024-05-09T10:08:17.393Z,6.00
2024-05-09T10:10:48.216Z,4.90
2024-05-09T10:13:15.975Z,7.40
2024-05-09T10:15:50.845Z,6.50
2024-05-09T10:18:26.324Z,7.70
2024-05-09T10:20:55.941Z,6.50
2024-05-09T10:23:28.213Z,8.60
2024-05-09T10:25:57.176Z,8.90
2024-05-09T10:28:41.986Z,12.00
2024-05-09T10:31:11.359Z,7.50
2024-05-09T10:33:45.953Z,7.20
2024-05-09T10:36:18.379Z,7.70
2024-05-09T10:38:45.590Z,6.00
2024-05-09T10:41:13.411Z,5.80
2024-05-09T10:43:41.612Z,17.60
2024-05-09T10:46:10.765Z,9.10
2024-05-09T10:48:39.594Z,8.00
2024-05-09T10:51:07.976Z,9.20
2024-05-09T10:53:42.259Z,10.80
2024-05-09T10:56:10.540Z,8.10
2024-05-09T10:58:37.691Z,12.60
2024-05-09T11:01:07.681Z,10.20
2024-05-09T11:03:36.561Z,7.30
2024-05-09T11:06:05.136Z,6.60
2024-05-09T11:08:33.613Z,7.00
2024-05-09T11:11:02.786Z,7.20
2024-05-09T11:13:31.647Z,9.90
2024-05-09T11:16:00.124Z,8.90
2024-05-09T11:18:32.176Z,10.80
2024-05-09T11:21:02.841Z,7.60
2024-05-09T11:23:30.510Z,7.20
2024-05-09T11:25:58.537Z,12.90
2024-05-09T11:28:28.610Z,8.60
2024-05-09T11:31:12.315Z,7.50
2024-05-09T11:33:42.975Z,8.20
2024-05-09T11:36:10.834Z,7.30
2024-05-09T11:38:38.079Z,9.20
2024-05-09T11:41:05.909Z,7.00
2024-05-09T11:43:34.113Z,6.30
2024-05-09T11:46:02.436Z,8.00
2024-05-09T11:48:30.656Z,10.10
2024-05-09T11:50:58.314Z,6.60
2024-05-09T11:53:25.479Z,6.80
2024-05-09T11:55:53.180Z,7.90
2024-05-09T11:58:22.312Z,5.70
2024-05-09T12:00:49.718Z,5.60
2024-05-09T12:03:17.078Z,6.90
2024-05-09T12:05:45.077Z,10.80
2024-05-09T12:08:13.337Z,8.20
2024-05-09T12:10:40.996Z,5.60
2024-05-09T12:13:08.590Z,8.60
2024-05-09T12:15:37.931Z,6.60
2024-05-09T12:18:07.607Z,5.80
2024-05-09T12:20:38.754Z,7.20
2024-05-09T12:23:09.848Z,7.10
2024-05-09T12:25:39.423Z,8.00
2024-05-09T12:28:08.113Z,6.00
2024-05-09T12:30:39.953Z,8.20
2024-05-09T12:33:13.212Z,8.00
2024-05-09T12:35:44.231Z,6.80
2024-05-09T12:38:14.690Z,13.70
2024-05-09T12:40:42.656Z,7.10
2024-05-09T12:43:11.252Z,5.70
2024-05-09T12:45:39.935Z,14.40
2024-05-09T12:48:10.810Z,6.50
2024-05-09T12:50:38.628Z,5.50
2024-05-09T12:53:06.105Z,7.90
2024-05-09T12:55:40.649Z,7.10
2024-05-09T12:58:19.150Z,7.20
2024-05-09T13:00:47.155Z,5.40
2024-05-09T13:03:15.715Z,7.00
2024-05-09T13:05:46.292Z,5.50
2024-05-09T13:08:13.985Z,6.70
2024-05-09T13:10:41.948Z,12.00
2024-05-09T13:13:10.269Z,7.60
2024-05-09T13:15:38.182Z,6.20
2024-05-09T13:18:06.205Z,6.80
2024-05-09T13:20:36.599Z,6.80
2024-05-09T13:23:06.472Z,6.80
2024-05-09T13:25:36.306Z,6.50
2024-05-09T13:28:04.791Z,6.80
2024-05-09T13:30:40.027Z,6.10
2024-05-09T13:33:11.870Z,7.30
2024-05-09T13:35:47.365Z,7.50
2024-05-09T13:38:19.602Z,6.10
2024-05-09T13:40:47.983Z,6.50
2024-05-09T13:43:15.614Z,6.10
2024-05-09T13:45:43.036Z,6.90
2024-05-09T13:48:10.722Z,6.00
2024-05-09T13:50:38.764Z,9.20
2024-05-09T13:53:07.620Z,6.00
2024-05-09T13:55:39.741Z,10.20
2024-05-09T13:58:08.618Z,9.50
2024-05-09T14:00:44.906Z,7.40
2024-05-09T14:03:18.788Z,9.00
2024-05-09T14:05:49.528Z,15.90
2024-05-09T14:08:19.215Z,8.20
2024-05-09T14:10:47.274Z,6.20
2024-05-09T14:13:15.324Z,7.20
2024-05-09T14:15:42.914Z,9.40
2024-05-09T14:18:13.299Z,9.90
2024-05-09T14:20:42.338Z,10.10
2024-05-09T14:23:09.993Z,8.80
2024-05-09T14:25:41.834Z,9.30
2024-05-09T14:28:12.932Z,6.40
2024-05-09T14:30:41.842Z,8.00
2024-05-09T14:33:10.017Z,8.00
2024-05-09T14:35:38.833Z,8.20
2024-05-09T14:38:08.378Z,7.80
2024-05-09T14:40:41.616Z,7.60
2024-05-09T14:43:13.075Z,7.00
2024-05-09T14:45:41.843Z,17.90
2024-05-09T14:48:10.003Z,9.40
2024-05-09T14:50:39.610Z,8.40
2024-05-09T14:53:10.311Z,7.90
2024-05-09T14:55:40.073Z,7.30
2024-05-09T14:58:10.023Z,6.80
2024-05-09T15:00:45.838Z,7.90
2024-05-09T15:03:21.802Z,7.50
2024-05-09T15:05:50.926Z,8.40
2024-05-09T15:08:19.385Z,7.70
2024-05-09T15:10:48.860Z,8.70
2024-05-09T15:13:17.288Z,11.20
2024-05-09T15:15:45.364Z,9.20
2024-05-09T15:18:14.187Z,7.60
2024-05-09T15:20:44.363Z,7.10
2024-05-09T15:23:11.866Z,8.60
2024-05-09T15:25:39.211Z,7.20
2024-05-09T15:28:08.136Z,9.10
2024-05-09T15:30:36.156Z,7.20
2024-05-09T15:33:04.639Z,8.80
2024-05-09T15:35:33.146Z,8.70
2024-05-09T15:38:02.373Z,9.50
2024-05-09T15:40:37.242Z,10.40
2024-05-09T15:43:09.741Z,8.90
2024-05-09T15:45:39.827Z,10.20
2024-05-09T15:48:08.257Z,13.40
2024-05-09T15:50:39.893Z,7.40
2024-05-09T15:53:11.136Z,12.10
2024-05-09T15:55:39.071Z,14.80
2024-05-09T15:58:07.406Z,9.40
2024-05-09T16:00:39.637Z,9.30
2024-05-09T16:03:10.615Z,12.40
2024-05-09T16:05:38.722Z,12.60
2024-05-09T16:08:07.147Z,8.40
2024-05-09T16:10:35.422Z,9.20
2024-05-09T16:13:03.932Z,8.80
2024-05-09T16:15:32.151Z,8.30
2024-05-09T16:18:00.650Z,13.30
2024-05-09T16:20:37.910Z,8.80
2024-05-09T16:23:08.768Z,8.80
2024-05-09T16:25:36.961Z,20.30
2024-05-09T16:28:08.681Z,11.90
2024-05-09T16:30:39.692Z,10.90
2024-05-09T16:33:08.611Z,13.70
2024-05-09T16:35:38.873Z,10.50
2024-05-09T16:38:06.265Z,21.80
2024-05-09T16:40:38.612Z,14.70
2024-05-09T16:43:09.546Z,20.90
2024-05-09T16:45:39.824Z,8.80
2024-05-09T16:48:08.861Z,13.50
2024-05-09T16:50:36.847Z,9.10
2024-05-09T16:53:06.160Z,15.00
2024-05-09T16:55:38.061Z,14.40
2024-05-09T16:58:07.577Z,11.60
2024-05-09T17:00:40.933Z,8.00
2024-05-09T17:03:15.526Z,12.20
2024-05-09T17:05:46.592Z,17.90
2024-05-09T17:08:16.546Z,14.50
2024-05-09T17:10:48.057Z,15.50
2024-05-09T17:13:15.979Z,29.60
2024-05-09T17:15:43.337Z,17.30
2024-05-09T17:18:10.755Z,19.80
2024-05-09T17:20:38.291Z,19.70
2024-05-09T17:23:12.157Z,24.70
2024-05-09T17:25:39.677Z,14.40
2024-05-09T17:28:08.590Z,10.70
2024-05-09T17:30:38.688Z,10.70
2024-05-09T17:33:09.708Z,19.80
2024-05-09T17:35:38.078Z,22.40
2024-05-09T17:38:09.092Z,15.60
2024-05-09T17:40:38.385Z,14.20
2024-05-09T17:43:09.222Z,10.50
2024-05-09T17:45:41.681Z,15.00
2024-05-09T17:48:11.684Z,9.20
2024-05-09T17:50:41.484Z,11.60
2024-05-09T17:53:09.963Z,11.40
2024-05-09T17:55:37.822Z,14.30
2024-05-09T17:58:05.947Z,17.80
2024-05-09T18:00:38.962Z,168.10
2024-05-09T18:03:11.037Z,131.60
2024-05-09T18:05:39.434Z,120.50
2024-05-09T18:08:07.895Z,63.00
2024-05-09T18:10:38.490Z,108.30
2024-05-09T18:13:09.011Z,68.10
2024-05-09T18:15:37.617Z,54.10
2024-05-09T18:18:06.352Z,70.40
2024-05-09T18:20:41.853Z,77.00
2024-05-09T18:23:18.007Z,48.50
2024-05-09T18:25:47.237Z,89.80
2024-05-09T18:28:16.720Z,108.60
2024-05-09T18:30:44.734Z,48.90
2024-05-09T18:33:12.568Z,22.00
2024-05-09T18:35:44.493Z,18.60
2024-05-09T18:38:12.145Z,16.70
2024-05-09T18:40:41.052Z,16.70
2024-05-09T18:43:10.763Z,16.60
2024-05-09T18:45:38.818Z,13.30
2024-05-09T18:48:09.532Z,15.50
2024-05-09T18:50:40.116Z,12.00
2024-05-09T18:53:10.854Z,13.90
2024-05-09T18:55:39.040Z,13.60
2024-05-09T18:58:06.711Z,21.60
2024-05-09T19:00:37.620Z,28.40
2024-05-09T19:03:08.071Z,86.50
2024-05-09T19:05:37.035Z,87.90
2024-05-09T19:08:05.454Z,46.40
2024-05-09T19:10:35.090Z,46.40
2024-05-09T19:13:08.230Z,48.80
2024-05-09T19:15:40.391Z,35.60
2024-05-09T19:18:09.405Z,30.60
2024-05-09T19:20:37.959Z,42.00
2024-05-09T19:23:06.544Z,29.70
2024-05-09T19:25:36.227Z,40.30
2024-05-09T19:28:05.481Z,97.40
2024-05-09T19:30:39.007Z,105.30
2024-05-09T19:33:12.480Z,75.20
2024-05-09T19:35:42.295Z,81.40
2024-05-09T19:38:10.386Z,85.00
2024-05-09T19:40:37.842Z,85.00
2024-05-09T19:43:06.305Z,65.20
2024-05-09T19:45:35.439Z,49.00
2024-05-09T19:48:05.145Z,30.60
2024-05-09T19:50:41.345Z,23.50
2024-05-09T19:53:13.085Z,36.50
2024-05-09T19:55:41.605Z,36.60
2024-05-09T19:58:10.001Z,37.00
2024-05-09T20:00:40.389Z,88.60
2024-05-09T20:03:11.871Z,82.40
2024-05-09T20:05:42.102Z,69.50
2024-05-09T20:08:09.442Z,53.80
2024-05-09T20:10:37.368Z,64.20
2024-05-09T20:13:06.905Z,108.10
2024-05-09T20:15:36.099Z,80.90
2024-05-09T20:18:04.068Z,34.30
2024-05-09T20:20:37.939Z,20.20
2024-05-09T20:23:10.455Z,41.40
2024-05-09T20:25:37.857Z,42.50
2024-05-09T20:28:05.791Z,51.10
2024-05-09T20:30:34.751Z,41.80
2024-05-09T20:33:05.197Z,32.70
2024-05-09T20:35:35.147Z,85.90
2024-05-09T20:38:03.667Z,39.10
2024-05-09T20:40:35.683Z,39.10
2024-05-09T20:43:07.709Z,41.70
2024-05-09T20:45:35.739Z,39.30
2024-05-09T20:48:03.689Z,57.70
2024-05-09T20:50:38.468Z,40.30
2024-05-09T20:53:10.868Z,35.00
2024-05-09T20:55:39.404Z,32.00
2024-05-09T20:58:06.672Z,28.20
2024-05-09T21:00:39.606Z,24.30
2024-05-09T21:03:12.339Z,26.90
2024-05-09T21:05:41.068Z,22.40
2024-05-09T21:08:08.701Z,23.90
2024-05-09T21:10:36.871Z,21.40
2024-05-09T21:13:05.687Z,22.80
2024-05-09T21:15:33.941Z,31.60
2024-05-09T21:18:01.509Z,38.40
2024-05-09T21:20:32.451Z,60.60
2024-05-09T21:23:01.601Z,54.80
2024-05-09T21:25:29.658Z,29.80
2024-05-09T21:27:57.332Z,21.00
2024-05-09T21:30:37.001Z,28.00
2024-05-09T21:33:09.708Z,24.30
2024-05-09T21:35:38.712Z,26.70
2024-05-09T21:38:06.761Z,26.10
2024-05-09T21:40:35.903Z,22.50
2024-05-09T21:43:06.448Z,36.60
2024-05-09T21:45:35.192Z,56.50
2024-05-09T21:48:03.892Z,57.20
2024-05-09T21:50:36.938Z,34.30
2024-05-09T21:53:08.040Z,81.00
2024-05-09T21:55:35.255Z,70.90
2024-05-09T21:58:03.253Z,64.30
2024-05-09T22:00:36.678Z,27.50
2024-05-09T22:03:07.756Z,31.50
2024-05-09T22:05:37.173Z,28.40
2024-05-09T22:08:04.787Z,45.80
2024-05-09T22:10:34.974Z,40.10
2024-05-09T22:13:05.741Z,40.00
2024-05-09T22:15:36.836Z,88.30
2024-05-09T22:18:06.229Z,71.70
2024-05-09T22:20:38.150Z,36.10
2024-05-09T22:23:08.321Z,36.00
2024-05-09T22:25:38.059Z,28.00
2024-05-09T22:28:05.845Z,27.30
2024-05-09T22:30:37.336Z,23.90
2024-05-09T22:33:09.336Z,21.90
2024-05-09T22:35:38.398Z,24.90
2024-05-09T22:38:06.011Z,16.60
2024-05-09T22:40:42.901Z,18.10
2024-05-09T22:43:20.295Z,19.10
2024-05-09T22:45:48.513Z,29.30
2024-05-09T22:48:15.965Z,24.00
2024-05-09T22:50:43.308Z,22.50
2024-05-09T22:53:11.207Z,26.60
2024-05-09T22:55:38.401Z,21.40
2024-05-09T22:58:05.679Z,17.20
2024-05-09T23:00:33.437Z,46.20
2024-05-09T23:03:01.504Z,22.90
2024-05-09T23:05:31.583Z,20.20
2024-05-09T23:08:00.993Z,18.50
2024-05-09T23:10:35.528Z,16.70
2024-05-09T23:13:06.741Z,15.20
2024-05-09T23:15:37.242Z,14.30
2024-05-09T23:18:05.475Z,16.30
2024-05-09T23:20:37.913Z,12.80
2024-05-09T23:23:08.795Z,15.70
2024-05-09T23:25:37.289Z,16.40
2024-05-09T23:28:05.381Z,15.00
2024-05-09T23:30:37.947Z,14.00
2024-05-09T23:33:10.457Z,13.50
2024-05-09T23:35:40.721Z,17.20
2024-05-09T23:38:07.940Z,16.70
2024-05-09T23:40:39.591Z,15.40
2024-05-09T23:43:12.320Z,17.40
2024-05-09T23:45:41.188Z,17.80
2024-05-09T23:48:09.290Z,19.80
2024-05-09T23:50:38.689Z,25.80
2024-05-09T23:53:09.205Z,22.30
2024-05-09T23:55:38.300Z,17.20
2024-05-09T23:58:07.056Z,14.30
